sensor_id;sensor_type;location;lat;lon;timestamp;pressure;altitude;pressure_sealevel;temperature;humidity
74544;BME280;63016;55.030;38.710;2024-03-06T00:01:31;101001.66;;;-1.70;52.29
74544;BME280;63016;55.030;38.710;2024-03-06T00:03:57;101005.88;;;-1.69;52.21
74544;BME280;63016;55.030;38.710;2024-03-06T00:06:23;101006.00;;;-1.72;51.72
74544;BME280;63016;55.030;38.710;2024-03-06T00:08:50;101017.84;;;-1.70;52.01
74544;BME280;63016;55.030;38.710;2024-03-06T00:11:16;101006.00;;;-1.72;52.50
74544;BME280;63016;55.030;38.710;2024-03-06T00:13:42;101011.13;;;-1.72;52.47
74544;BME280;63016;55.030;38.710;2024-03-06T00:16:08;101012.78;;;-1.71;52.48
74544;BME280;63016;55.030;38.710;2024-03-06T00:18:34;101010.22;;;-1.71;52.55
74544;BME280;63016;55.030;38.710;2024-03-06T00:21:00;101012.84;;;-1.73;52.66
74544;BME280;63016;55.030;38.710;2024-03-06T00:23:25;101018.75;;;-1.71;52.26
74544;BME280;63016;55.030;38.710;2024-03-06T00:25:52;101016.09;;;-1.69;52.54
74544;BME280;63016;55.030;38.710;2024-03-06T00:28:17;101013.69;;;-1.72;52.01
74544;BME280;63016;55.030;38.710;2024-03-06T00:30:43;101023.84;;;-1.71;52.10
74544;BME280;63016;55.030;38.710;2024-03-06T00:33:08;101020.41;;;-1.70;52.31
74544;BME280;63016;55.030;38.710;2024-03-06T00:35:34;101028.97;;;-1.71;52.63
74544;BME280;63016;55.030;38.710;2024-03-06T00:37:59;101025.50;;;-1.70;52.71
74544;BME280;63016;55.030;38.710;2024-03-06T00:40:28;101028.88;;;-1.68;53.08
74544;BME280;63016;55.030;38.710;2024-03-06T00:42:57;101026.22;;;-1.66;52.73
74544;BME280;63016;55.030;38.710;2024-03-06T00:45:23;101023.56;;;-1.63;52.67
74544;BME280;63016;55.030;38.710;2024-03-06T00:47:49;101030.34;;;-1.62;52.81
74544;BME280;63016;55.030;38.710;2024-03-06T00:50:15;101029.44;;;-1.61;52.54
74544;BME280;63016;55.030;38.710;2024-03-06T00:52:45;101027.72;;;-1.61;52.86
74544;BME280;63016;55.030;38.710;2024-03-06T00:55:10;101025.13;;;-1.59;51.96
74544;BME280;63016;55.030;38.710;2024-03-06T00:57:36;101019.28;;;-1.63;52.07
74544;BME280;63016;55.030;38.710;2024-03-06T01:00:03;101032.00;;;-1.61;52.60
74544;BME280;63016;55.030;38.710;2024-03-06T01:02:36;101027.69;;;-1.59;52.43
74544;BME280;63016;55.030;38.710;2024-03-06T01:05:02;101031.00;;;-1.57;52.93
74544;BME280;63016;55.030;38.710;2024-03-06T01:07:29;101027.69;;;-1.59;52.94
74544;BME280;63016;55.030;38.710;2024-03-06T01:09:56;101027.69;;;-1.59;52.76
74544;BME280;63016;55.030;38.710;2024-03-06T01:12:23;101029.34;;;-1.58;52.61
74544;BME280;63016;55.030;38.710;2024-03-06T01:14:49;101025.81;;;-1.56;52.80
74544;BME280;63016;55.030;38.710;2024-03-06T01:17:14;101033.44;;;-1.54;52.32
74544;BME280;63016;55.030;38.710;2024-03-06T01:19:40;101031.66;;;-1.52;51.98
74544;BME280;63016;55.030;38.710;2024-03-06T01:22:05;101024.94;;;-1.54;52.54
74544;BME280;63016;55.030;38.710;2024-03-06T01:24:31;101027.44;;;-1.53;52.41
74544;BME280;63016;55.030;38.710;2024-03-06T01:26:57;101025.63;;;-1.51;52.82
74544;BME280;63016;55.030;38.710;2024-03-06T01:29:24;101035.88;;;-1.51;52.52
74544;BME280;63016;55.030;38.710;2024-03-06T01:31:49;101031.66;;;-1.52;52.58
74544;BME280;63016;55.030;38.710;2024-03-06T01:34:15;101028.25;;;-1.52;52.47
74544;BME280;63016;55.030;38.710;2024-03-06T01:36:40;101024.25;;;-1.60;52.51
74544;BME280;63016;55.030;38.710;2024-03-06T01:39:06;101034.09;;;-1.49;52.66
74544;BME280;63016;55.030;38.710;2024-03-06T01:41:32;101033.25;;;-1.49;52.47
74544;BME280;63016;55.030;38.710;2024-03-06T01:43:57;101034.09;;;-1.49;52.50
74544;BME280;63016;55.030;38.710;2024-03-06T01:46:23;101030.63;;;-1.48;52.60
74544;BME280;63016;55.030;38.710;2024-03-06T01:48:48;101037.50;;;-1.48;52.25
74544;BME280;63016;55.030;38.710;2024-03-06T01:51:14;101034.03;;;-1.47;52.38
74544;BME280;63016;55.030;38.710;2024-03-06T01:53:40;101029.84;;;-1.50;52.62
74544;BME280;63016;55.030;38.710;2024-03-06T01:56:05;101034.03;;;-1.47;52.32
74544;BME280;63016;55.030;38.710;2024-03-06T01:58:33;101039.22;;;-1.49;52.92
74544;BME280;63016;55.030;38.710;2024-03-06T02:00:59;101040.03;;;-1.48;52.59
74544;BME280;63016;55.030;38.710;2024-03-06T02:03:25;101035.75;;;-1.48;52.76
74544;BME280;63016;55.030;38.710;2024-03-06T02:05:52;101033.19;;;-1.48;52.76
74544;BME280;63016;55.030;38.710;2024-03-06T02:08:18;101037.41;;;-1.47;52.42
74544;BME280;63016;55.030;38.710;2024-03-06T02:10:47;101036.47;;;-1.44;52.61
74544;BME280;63016;55.030;38.710;2024-03-06T02:13:13;101033.97;;;-1.46;52.95
74544;BME280;63016;55.030;38.710;2024-03-06T02:15:39;101043.31;;;-1.45;52.70
74544;BME280;63016;55.030;38.710;2024-03-06T02:18:05;101037.41;;;-1.47;52.57
74544;BME280;63016;55.030;38.710;2024-03-06T02:20:31;101038.19;;;-1.45;52.39
74544;BME280;63016;55.030;38.710;2024-03-06T02:22:57;101043.25;;;-1.43;52.37
74544;BME280;63016;55.030;38.710;2024-03-06T02:25:22;101044.00;;;-1.41;52.92
74544;BME280;63016;55.030;38.710;2024-03-06T02:27:48;101045.66;;;-1.40;52.46
74544;BME280;63016;55.030;38.710;2024-03-06T02:30:13;101035.41;;;-1.39;52.50
74544;BME280;63016;55.030;38.710;2024-03-06T02:32:39;101043.06;;;-1.39;52.70
74544;BME280;63016;55.030;38.710;2024-03-06T02:35:05;101048.22;;;-1.40;51.97
74544;BME280;63016;55.030;38.710;2024-03-06T02:37:34;101048.31;;;-1.42;52.10
74544;BME280;63016;55.030;38.710;2024-03-06T02:40:00;101044.81;;;-1.39;52.76
74544;BME280;63016;55.030;38.710;2024-03-06T02:42:28;101044.09;;;-1.43;52.76
74544;BME280;63016;55.030;38.710;2024-03-06T02:44:54;101041.41;;;-1.40;52.55
74544;BME280;63016;55.030;38.710;2024-03-06T02:47:19;101049.13;;;-1.41;52.57
74544;BME280;63016;55.030;38.710;2024-03-06T02:49:45;101049.03;;;-1.38;52.32
74544;BME280;63016;55.030;38.710;2024-03-06T02:52:10;101057.53;;;-1.38;52.47
74544;BME280;63016;55.030;38.710;2024-03-06T02:54:36;101059.19;;;-1.37;52.16
74544;BME280;63016;55.030;38.710;2024-03-06T02:57:02;101055.81;;;-1.37;52.72
74544;BME280;63016;55.030;38.710;2024-03-06T02:59:27;101056.63;;;-1.37;52.85
74544;BME280;63016;55.030;38.710;2024-03-06T03:01:53;101058.38;;;-1.37;52.27
74544;BME280;63016;55.030;38.710;2024-03-06T03:04:18;101057.41;;;-1.35;52.45
74544;BME280;63016;55.030;38.710;2024-03-06T03:06:44;101065.09;;;-1.35;52.98
74544;BME280;63016;55.030;38.710;2024-03-06T03:09:09;101066.88;;;-1.37;52.62
74544;BME280;63016;55.030;38.710;2024-03-06T03:11:37;101067.69;;;-1.36;52.64
74544;BME280;63016;55.030;38.710;2024-03-06T03:14:03;101070.22;;;-1.35;52.51
74544;BME280;63016;55.030;38.710;2024-03-06T03:16:28;101066.75;;;-1.34;52.69
74544;BME280;63016;55.030;38.710;2024-03-06T03:18:55;101071.88;;;-1.34;52.70
74544;BME280;63016;55.030;38.710;2024-03-06T03:21:22;101071.81;;;-1.32;52.82
74544;BME280;63016;55.030;38.710;2024-03-06T03:23:47;101076.09;;;-1.33;52.35
74544;BME280;63016;55.030;38.710;2024-03-06T03:26:15;101076.94;;;-1.32;52.95
74544;BME280;63016;55.030;38.710;2024-03-06T03:28:40;101076.94;;;-1.32;52.63
74544;BME280;63016;55.030;38.710;2024-03-06T03:31:09;101079.50;;;-1.32;52.65
74544;BME280;63016;55.030;38.710;2024-03-06T03:33:38;101080.31;;;-1.32;52.06
74544;BME280;63016;55.030;38.710;2024-03-06T03:36:05;101076.09;;;-1.33;52.57
74544;BME280;63016;55.030;38.710;2024-03-06T03:38:32;101079.50;;;-1.32;52.97
74544;BME280;63016;55.030;38.710;2024-03-06T03:41:01;101084.56;;;-1.31;52.59
74544;BME280;63016;55.030;38.710;2024-03-06T03:43:29;101082.84;;;-1.30;52.57
74544;BME280;63016;55.030;38.710;2024-03-06T03:45:55;101080.31;;;-1.32;52.43
74544;BME280;63016;55.030;38.710;2024-03-06T03:48:21;101074.34;;;-1.31;52.95
74544;BME280;63016;55.030;38.710;2024-03-06T03:50:46;101078.59;;;-1.31;52.51
74544;BME280;63016;55.030;38.710;2024-03-06T03:53:12;101087.06;;;-1.29;52.79
74544;BME280;63016;55.030;38.710;2024-03-06T03:55:37;101082.88;;;-1.32;52.19
74544;BME280;63016;55.030;38.710;2024-03-06T03:58:03;101084.69;;;-1.34;52.82
74544;BME280;63016;55.030;38.710;2024-03-06T04:00:28;101088.72;;;-1.28;52.25
74544;BME280;63016;55.030;38.710;2024-03-06T04:02:55;101094.69;;;-1.27;52.20
74544;BME280;63016;55.030;38.710;2024-03-06T04:05:21;101090.44;;;-1.28;52.36
74544;BME280;63016;55.030;38.710;2024-03-06T04:07:47;101092.19;;;-1.29;52.19
74544;BME280;63016;55.030;38.710;2024-03-06T04:10:13;101090.44;;;-1.28;52.21
74544;BME280;63016;55.030;38.710;2024-03-06T04:12:38;101089.56;;;-1.27;52.75
74544;BME280;63016;55.030;38.710;2024-03-06T04:15:05;101089.81;;;-1.34;52.51
74544;BME280;63016;55.030;38.710;2024-03-06T04:17:30;101092.19;;;-1.29;52.87
74544;BME280;63016;55.030;38.710;2024-03-06T04:19:56;101090.44;;;-1.28;52.68
74544;BME280;63016;55.030;38.710;2024-03-06T04:22:22;101098.91;;;-1.26;52.32
74544;BME280;63016;55.030;38.710;2024-03-06T04:24:47;101096.34;;;-1.26;52.43
74544;BME280;63016;55.030;38.710;2024-03-06T04:27:13;101096.47;;;-1.30;52.84
74544;BME280;63016;55.030;38.710;2024-03-06T04:29:38;101098.91;;;-1.26;53.09
74544;BME280;63016;55.030;38.710;2024-03-06T04:32:04;101092.91;;;-1.25;53.00
74544;BME280;63016;55.030;38.710;2024-03-06T04:34:30;101089.56;;;-1.27;52.79
74544;BME280;63016;55.030;38.710;2024-03-06T04:36:55;101096.34;;;-1.26;53.22
74544;BME280;63016;55.030;38.710;2024-03-06T04:39:22;101103.16;;;-1.25;53.05
74544;BME280;63016;55.030;38.710;2024-03-06T04:41:47;101103.84;;;-1.22;53.37
74544;BME280;63016;55.030;38.710;2024-03-06T04:44:13;101098.78;;;-1.23;53.13
74544;BME280;63016;55.030;38.710;2024-03-06T04:46:38;101100.44;;;-1.22;53.21
74544;BME280;63016;55.030;38.710;2024-03-06T04:49:04;101102.91;;;-1.19;53.01
74544;BME280;63016;55.030;38.710;2024-03-06T04:51:29;101104.56;;;-1.18;52.97
74544;BME280;63016;55.030;38.710;2024-03-06T04:53:55;101104.63;;;-1.20;52.93
74544;BME280;63016;55.030;38.710;2024-03-06T04:56:20;101098.69;;;-1.20;52.84
74544;BME280;63016;55.030;38.710;2024-03-06T04:58:47;101108.03;;;-1.19;52.34
74544;BME280;63016;55.030;38.710;2024-03-06T05:01:13;101108.03;;;-1.19;52.81
74544;BME280;63016;55.030;38.710;2024-03-06T05:03:39;101108.13;;;-1.22;52.89
74544;BME280;63016;55.030;38.710;2024-03-06T05:06:05;101103.78;;;-1.20;53.11
74544;BME280;63016;55.030;38.710;2024-03-06T05:08:31;101111.34;;;-1.17;52.62
74544;BME280;63016;55.030;38.710;2024-03-06T05:11:00;101108.78;;;-1.17;53.33
74544;BME280;63016;55.030;38.710;2024-03-06T05:13:26;101113.00;;;-1.16;52.76
74544;BME280;63016;55.030;38.710;2024-03-06T05:15:52;101108.78;;;-1.17;53.32
74544;BME280;63016;55.030;38.710;2024-03-06T05:18:19;101115.38;;;-1.12;52.85
74544;BME280;63016;55.030;38.710;2024-03-06T05:20:45;101115.34;;;-1.10;53.21
74544;BME280;63016;55.030;38.710;2024-03-06T05:23:11;101099.31;;;-1.15;53.18
74544;BME280;63016;55.030;38.710;2024-03-06T05:25:38;101111.88;;;-1.09;53.26
74544;BME280;63016;55.030;38.710;2024-03-06T05:28:04;101109.25;;;-1.08;53.18
74544;BME280;63016;55.030;38.710;2024-03-06T05:30:29;101108.22;;;-1.04;53.49
74544;BME280;63016;55.030;38.710;2024-03-06T05:32:56;101112.34;;;-0.99;53.49
74544;BME280;63016;55.030;38.710;2024-03-06T05:35:21;101105.50;;;-0.99;52.96
74544;BME280;63016;55.030;38.710;2024-03-06T05:37:47;101102.81;;;-0.96;53.61
74544;BME280;63016;55.030;38.710;2024-03-06T05:40:12;101106.97;;;-0.93;52.85
74544;BME280;63016;55.030;38.710;2024-03-06T05:42:38;101101.00;;;-0.94;52.59
74544;BME280;63016;55.030;38.710;2024-03-06T05:45:04;101110.31;;;-0.91;52.51
74544;BME280;63016;55.030;38.710;2024-03-06T05:47:38;101111.16;;;-0.91;53.01
74544;BME280;63016;55.030;38.710;2024-03-06T05:50:08;101118.75;;;-0.89;52.84
74544;BME280;63016;55.030;38.710;2024-03-06T05:52:36;101116.25;;;-0.91;52.60
74544;BME280;63016;55.030;38.710;2024-03-06T05:55:02;101123.94;;;-0.91;53.15
74544;BME280;63016;55.030;38.710;2024-03-06T05:57:28;101112.88;;;-0.91;52.43
74544;BME280;63016;55.030;38.710;2024-03-06T05:59:53;101123.16;;;-0.93;52.61
74544;BME280;63016;55.030;38.710;2024-03-06T06:02:20;101106.06;;;-0.92;52.89
74544;BME280;63016;55.030;38.710;2024-03-06T06:04:46;101122.16;;;-0.89;53.11
74544;BME280;63016;55.030;38.710;2024-03-06T06:07:11;101119.59;;;-0.89;52.64
74544;BME280;63016;55.030;38.710;2024-03-06T06:09:37;101116.19;;;-0.89;52.64
74544;BME280;63016;55.030;38.710;2024-03-06T06:12:03;101112.03;;;-0.92;52.78
74544;BME280;63016;55.030;38.710;2024-03-06T06:14:28;101121.88;;;-0.83;52.75
74544;BME280;63016;55.030;38.710;2024-03-06T06:16:56;101124.22;;;-0.76;53.37
74544;BME280;63016;55.030;38.710;2024-03-06T06:19:41;101125.50;;;-0.66;53.38
74544;BME280;63016;55.030;38.710;2024-03-06T06:22:07;101126.34;;;-0.66;53.50
74544;BME280;63016;55.030;38.710;2024-03-06T06:24:32;101129.34;;;-0.56;53.44
74544;BME280;63016;55.030;38.710;2024-03-06T06:26:58;101122.19;;;-0.48;53.64
74544;BME280;63016;55.030;38.710;2024-03-06T06:29:23;101124.31;;;-0.39;53.92
74544;BME280;63016;55.030;38.710;2024-03-06T06:31:49;101125.66;;;-0.30;53.39
74544;BME280;63016;55.030;38.710;2024-03-06T06:34:14;101124.56;;;-0.24;53.62
74544;BME280;63016;55.030;38.710;2024-03-06T06:36:45;101123.94;;;-0.09;53.47
74544;BME280;63016;55.030;38.710;2024-03-06T06:39:11;101123.53;;;0.00;53.92
74544;BME280;63016;55.030;38.710;2024-03-06T06:41:37;101127.47;;;0.07;54.07
74544;BME280;63016;55.030;38.710;2024-03-06T06:44:03;101130.53;;;0.15;54.17
74544;BME280;63016;55.030;38.710;2024-03-06T06:46:28;101132.69;;;0.24;54.27
74544;BME280;63016;55.030;38.710;2024-03-06T06:49:13;101133.13;;;0.34;54.24
74544;BME280;63016;55.030;38.710;2024-03-06T06:51:38;101142.09;;;0.43;54.08
74544;BME280;63016;55.030;38.710;2024-03-06T06:54:04;101132.53;;;0.46;54.22
74544;BME280;63016;55.030;38.710;2024-03-06T06:56:31;101141.56;;;0.55;53.81
74544;BME280;63016;55.030;38.710;2024-03-06T06:58:56;101137.94;;;0.59;53.98
74544;BME280;63016;55.030;38.710;2024-03-06T07:01:22;101143.53;;;0.67;54.23
74544;BME280;63016;55.030;38.710;2024-03-06T07:03:47;101138.28;;;0.70;54.30
74544;BME280;63016;55.030;38.710;2024-03-06T07:06:13;101136.81;;;0.84;54.05
74544;BME280;63016;55.030;38.710;2024-03-06T07:08:39;101132.19;;;0.90;53.93
74544;BME280;63016;55.030;38.710;2024-03-06T07:11:04;101139.47;;;0.99;53.63
74544;BME280;63016;55.030;38.710;2024-03-06T07:13:30;101142.63;;;1.05;53.40
74544;BME280;63016;55.030;38.710;2024-03-06T07:16:14;101141.47;;;1.12;53.57
74544;BME280;63016;55.030;38.710;2024-03-06T07:18:41;101142.19;;;1.14;53.22
74544;BME280;63016;55.030;38.710;2024-03-06T07:21:11;101137.75;;;1.17;53.88
74544;BME280;63016;55.030;38.710;2024-03-06T07:23:37;101134.03;;;1.23;53.24
74544;BME280;63016;55.030;38.710;2024-03-06T07:26:03;101139.03;;;1.26;53.78
74544;BME280;63016;55.030;38.710;2024-03-06T07:28:28;101137.91;;;1.32;53.18
74544;BME280;63016;55.030;38.710;2024-03-06T07:31:01;101141.91;;;1.37;53.43
74544;BME280;63016;55.030;38.710;2024-03-06T07:33:45;101143.44;;;1.41;53.19
74544;BME280;63016;55.030;38.710;2024-03-06T07:36:11;101144.09;;;1.45;53.46
74544;BME280;63016;55.030;38.710;2024-03-06T07:38:36;101144.72;;;1.50;53.24
74544;BME280;63016;55.030;38.710;2024-03-06T07:41:02;101142.06;;;1.51;53.39
74544;BME280;63016;55.030;38.710;2024-03-06T07:43:27;101147.72;;;1.58;52.99
74544;BME280;63016;55.030;38.710;2024-03-06T07:45:53;101157.09;;;1.59;52.59
74544;BME280;63016;55.030;38.710;2024-03-06T07:48:19;101145.13;;;1.58;52.90
74544;BME280;63016;55.030;38.710;2024-03-06T07:50:45;101147.03;;;1.54;52.31
74544;BME280;63016;55.030;38.710;2024-03-06T07:53:10;101150.47;;;1.55;52.75
74544;BME280;63016;55.030;38.710;2024-03-06T07:55:36;101148.63;;;1.57;52.46
74544;BME280;63016;55.030;38.710;2024-03-06T07:58:01;101142.44;;;1.61;53.23
74544;BME280;63016;55.030;38.710;2024-03-06T08:00:27;101140.44;;;1.66;53.31
74544;BME280;63016;55.030;38.710;2024-03-06T08:02:52;101141.28;;;1.67;52.74
74544;BME280;63016;55.030;38.710;2024-03-06T08:05:18;101147.34;;;1.66;52.49
74544;BME280;63016;55.030;38.710;2024-03-06T08:07:45;101155.13;;;1.64;52.36
74544;BME280;63016;55.030;38.710;2024-03-06T08:10:14;101141.59;;;1.61;52.42
74544;BME280;63016;55.030;38.710;2024-03-06T08:12:44;101134.63;;;1.63;52.99
74544;BME280;63016;55.030;38.710;2024-03-06T08:15:11;101137.97;;;1.65;53.03
74544;BME280;63016;55.030;38.710;2024-03-06T08:17:42;101134.53;;;1.64;52.65
74544;BME280;63016;55.030;38.710;2024-03-06T08:20:09;101138.63;;;1.68;52.77
74544;BME280;63016;55.030;38.710;2024-03-06T08:22:37;101146.19;;;1.71;52.92
74544;BME280;63016;55.030;38.710;2024-03-06T08:25:10;101140.03;;;1.74;52.32
74544;BME280;63016;55.030;38.710;2024-03-06T08:27:38;101134.84;;;1.75;52.54
74544;BME280;63016;55.030;38.710;2024-03-06T08:30:05;101152.63;;;1.80;52.33
74544;BME280;63016;55.030;38.710;2024-03-06T08:32:31;101142.38;;;1.78;52.58
74544;BME280;63016;55.030;38.710;2024-03-06T08:34:59;101143.84;;;1.84;52.49
74544;BME280;63016;55.030;38.710;2024-03-06T08:37:25;101135.09;;;1.87;52.67
74544;BME280;63016;55.030;38.710;2024-03-06T08:39:50;101139.09;;;1.92;53.12
74544;BME280;63016;55.030;38.710;2024-03-06T08:42:16;101143.88;;;2.00;52.81
74544;BME280;63016;55.030;38.710;2024-03-06T08:44:44;101141.78;;;2.06;53.32
74544;BME280;63016;55.030;38.710;2024-03-06T08:47:10;101141.31;;;2.16;53.28
74544;BME280;63016;55.030;38.710;2024-03-06T08:49:35;101136.75;;;2.21;52.90
74544;BME280;63016;55.030;38.710;2024-03-06T08:52:00;101136.16;;;2.31;53.19
74544;BME280;63016;55.030;38.710;2024-03-06T08:54:26;101134.75;;;2.42;52.88
74544;BME280;63016;55.030;38.710;2024-03-06T08:56:51;101126.53;;;2.51;53.09
74544;BME280;63016;55.030;38.710;2024-03-06T08:59:23;101129.63;;;2.57;53.34
74544;BME280;63016;55.030;38.710;2024-03-06T09:01:53;101133.59;;;2.63;52.97
74544;BME280;63016;55.030;38.710;2024-03-06T09:04:19;101142.50;;;2.73;53.46
74544;BME280;63016;55.030;38.710;2024-03-06T09:06:45;101138.16;;;2.74;53.04
74544;BME280;63016;55.030;38.710;2024-03-06T09:09:11;101144.56;;;2.82;52.74
74544;BME280;63016;55.030;38.710;2024-03-06T09:11:40;101143.53;;;2.85;52.79
74544;BME280;63016;55.030;38.710;2024-03-06T09:14:06;101136.47;;;2.89;53.33
74544;BME280;63016;55.030;38.710;2024-03-06T09:16:31;101140.66;;;2.91;53.16
74544;BME280;63016;55.030;38.710;2024-03-06T09:18:57;101125.81;;;2.95;53.24
74544;BME280;63016;55.030;38.710;2024-03-06T09:21:22;101119.50;;;3.00;53.12
74544;BME280;63016;55.030;38.710;2024-03-06T09:23:48;101125.16;;;3.07;53.43
74544;BME280;63016;55.030;38.710;2024-03-06T09:26:16;101124.38;;;3.21;53.86
74544;BME280;63016;55.030;38.710;2024-03-06T09:28:42;101128.06;;;3.31;53.63
74544;BME280;63016;55.030;38.710;2024-03-06T09:31:08;101129.34;;;3.38;53.23
74544;BME280;63016;55.030;38.710;2024-03-06T09:33:33;101121.44;;;3.41;53.26
74544;BME280;63016;55.030;38.710;2024-03-06T09:35:59;101115.31;;;3.44;53.27
74544;BME280;63016;55.030;38.710;2024-03-06T09:38:25;101118.50;;;3.47;53.32
74544;BME280;63016;55.030;38.710;2024-03-06T09:40:50;101120.81;;;3.52;53.14
74544;BME280;63016;55.030;38.710;2024-03-06T09:43:17;101116.22;;;3.57;53.00
74544;BME280;63016;55.030;38.710;2024-03-06T09:45:48;101110.88;;;3.60;53.54
74544;BME280;63016;55.030;38.710;2024-03-06T09:48:17;101102.78;;;3.66;53.81
74544;BME280;63016;55.030;38.710;2024-03-06T09:50:46;101104.81;;;3.75;53.56
74544;BME280;63016;55.030;38.710;2024-03-06T09:53:16;101103.69;;;3.79;53.41
74544;BME280;63016;55.030;38.710;2024-03-06T09:55:42;101107.84;;;3.82;52.95
74544;BME280;63016;55.030;38.710;2024-03-06T09:58:08;101110.34;;;3.83;53.17
74544;BME280;63016;55.030;38.710;2024-03-06T10:00:34;101113.00;;;3.82;52.96
74544;BME280;63016;55.030;38.710;2024-03-06T10:03:01;101110.34;;;3.83;53.29
74544;BME280;63016;55.030;38.710;2024-03-06T10:05:30;101112.81;;;3.85;53.13
74544;BME280;63016;55.030;38.710;2024-03-06T10:07:58;101111.00;;;3.87;52.87
74544;BME280;63016;55.030;38.710;2024-03-06T10:10:24;101104.09;;;3.88;53.19
74544;BME280;63016;55.030;38.710;2024-03-06T10:12:50;101108.31;;;3.89;52.63
74544;BME280;63016;55.030;38.710;2024-03-06T10:15:16;101106.56;;;3.89;53.12
74544;BME280;63016;55.030;38.710;2024-03-06T10:17:41;101102.31;;;3.88;52.63
74544;BME280;63016;55.030;38.710;2024-03-06T10:20:23;101102.31;;;3.88;53.02
74544;BME280;63016;55.030;38.710;2024-03-06T10:22:50;101103.97;;;3.89;53.10
74544;BME280;63016;55.030;38.710;2024-03-06T10:25:20;101098.25;;;3.84;52.38
74544;BME280;63016;55.030;38.710;2024-03-06T10:28:10;101098.09;;;3.87;53.07
74544;BME280;63016;55.030;38.710;2024-03-06T10:30:40;101099.63;;;3.90;52.92
74544;BME280;63016;55.030;38.710;2024-03-06T10:33:07;101103.06;;;3.90;53.40
74544;BME280;63016;55.030;38.710;2024-03-06T10:35:36;101099.38;;;3.94;52.88
74544;BME280;63016;55.030;38.710;2024-03-06T10:38:07;101103.59;;;3.95;53.05
74544;BME280;63016;55.030;38.710;2024-03-06T10:40:37;101096.13;;;3.91;52.65
74544;BME280;63016;55.030;38.710;2024-03-06T10:43:04;101099.00;;;3.86;52.58
74544;BME280;63016;55.030;38.710;2024-03-06T10:45:48;101089.50;;;3.86;52.77
74544;BME280;63016;55.030;38.710;2024-03-06T10:48:16;101093.00;;;3.85;52.87
74544;BME280;63016;55.030;38.710;2024-03-06T10:50:43;101098.81;;;3.89;52.96
74544;BME280;63016;55.030;38.710;2024-03-06T10:53:11;101098.00;;;3.89;53.15
74544;BME280;63016;55.030;38.710;2024-03-06T10:55:38;101094.38;;;3.91;53.11
74544;BME280;63016;55.030;38.710;2024-03-06T10:58:08;101100.94;;;3.97;52.94
74544;BME280;63016;55.030;38.710;2024-03-06T11:00:38;101085.16;;;4.01;53.17
74544;BME280;63016;55.030;38.710;2024-03-06T11:03:09;101089.84;;;4.09;53.17
74544;BME280;63016;55.030;38.710;2024-03-06T11:05:44;101082.75;;;4.12;52.85
74544;BME280;63016;55.030;38.710;2024-03-06T11:08:13;101086.81;;;4.17;53.22
74544;BME280;63016;55.030;38.710;2024-03-06T11:10:40;101082.38;;;4.19;53.18
74544;BME280;63016;55.030;38.710;2024-03-06T11:13:23;101085.59;;;4.22;52.43
74544;BME280;63016;55.030;38.710;2024-03-06T11:15:50;101083.94;;;4.21;52.64
74544;BME280;63016;55.030;38.710;2024-03-06T11:23:31;101075.09;;;4.11;52.11
74544;BME280;63016;55.030;38.710;2024-03-06T11:26:05;101080.63;;;4.05;51.86
74544;BME280;63016;55.030;38.710;2024-03-06T11:28:33;101077.31;;;4.03;52.28
74544;BME280;63016;55.030;38.710;2024-03-06T11:31:03;101077.50;;;4.00;52.08
74544;BME280;63016;55.030;38.710;2024-03-06T11:36:24;101065.63;;;3.97;52.13
74544;BME280;63016;55.030;38.710;2024-03-06T11:38:59;101066.91;;;3.90;52.07
74544;BME280;63016;55.030;38.710;2024-03-06T11:41:27;101068.00;;;3.86;52.16
74544;BME280;63016;55.030;38.710;2024-03-06T11:43:54;101061.38;;;3.82;52.14
74544;BME280;63016;55.030;38.710;2024-03-06T11:49:16;101062.50;;;3.78;51.64
74544;BME280;63016;55.030;38.710;2024-03-06T11:51:50;101051.91;;;3.68;51.80
74544;BME280;63016;55.030;38.710;2024-03-06T11:54:16;101057.13;;;3.67;52.12
74544;BME280;63016;55.030;38.710;2024-03-06T11:56:48;101056.53;;;3.63;51.93
74544;BME280;63016;55.030;38.710;2024-03-06T11:59:15;101053.38;;;3.58;51.86
74544;BME280;63016;55.030;38.710;2024-03-06T12:01:41;101053.56;;;3.55;51.90
74544;BME280;63016;55.030;38.710;2024-03-06T12:04:07;101056.97;;;3.55;52.39
74544;BME280;63016;55.030;38.710;2024-03-06T12:06:33;101057.78;;;3.56;51.96
74544;BME280;63016;55.030;38.710;2024-03-06T12:08:59;101053.56;;;3.55;52.22
74544;BME280;63016;55.030;38.710;2024-03-06T12:11:25;101056.25;;;3.53;52.02
74544;BME280;63016;55.030;38.710;2024-03-06T12:13:54;101055.59;;;3.50;51.75
74544;BME280;63016;55.030;38.710;2024-03-06T12:16:21;101045.44;;;3.47;51.67
74544;BME280;63016;55.030;38.710;2024-03-06T12:18:46;101045.91;;;3.39;51.86
74544;BME280;63016;55.030;38.710;2024-03-06T12:21:12;101043.41;;;3.38;51.53
74544;BME280;63016;55.030;38.710;2024-03-06T12:23:40;101048.56;;;3.38;51.84
74544;BME280;63016;55.030;38.710;2024-03-06T12:26:07;101044.44;;;3.35;51.95
74544;BME280;63016;55.030;38.710;2024-03-06T12:28:35;101045.34;;;3.34;51.92
74544;BME280;63016;55.030;38.710;2024-03-06T12:31:02;101032.53;;;3.32;51.75
74544;BME280;63016;55.030;38.710;2024-03-06T12:33:28;101040.28;;;3.32;51.72
74544;BME280;63016;55.030;38.710;2024-03-06T12:36:02;101036.97;;;3.30;50.95
74544;BME280;63016;55.030;38.710;2024-03-06T12:38:28;101042.22;;;3.29;51.90
74544;BME280;63016;55.030;38.710;2024-03-06T12:40:54;101042.38;;;3.26;51.42
74544;BME280;63016;55.030;38.710;2024-03-06T12:43:20;101035.59;;;3.25;51.32
74544;BME280;63016;55.030;38.710;2024-03-06T12:45:45;101035.75;;;3.22;51.36
74544;BME280;63016;55.030;38.710;2024-03-06T12:48:11;101031.50;;;3.21;51.51
74544;BME280;63016;55.030;38.710;2024-03-06T12:50:38;101032.50;;;3.18;51.36
74544;BME280;63016;55.030;38.710;2024-03-06T12:53:03;101035.19;;;3.17;51.34
74544;BME280;63016;55.030;38.710;2024-03-06T12:55:32;101028.44;;;3.14;51.50